Time;durP1;ratioP1;P1;durP2;ratioP2;P2;SDS_P1;SDS_P2;PMS_P1;PMS_P2;Temp;Humidity;BMP_temperature;BMP_pressure;BME280_temperature;BME280_humidity;BME280_pressure;Samples;Min_cycle;Max_cycle;Signal;HPM_P1;HPM_P2
2022/01/11 00:00:14;;;;;;;35.15;22.00;;;;;;;;;;5073944;28;20047;-71
2022/01/11 00:02:44;;;;;;;33.95;21.80;;;;;;;;;;5081911;28;20064;-71
2022/01/11 00:05:18;;;;;;;33.83;21.90;;;;;;;;;;5074059;28;20040;-71
2022/01/11 00:07:45;;;;;;;38.20;21.73;;;;;;;;;;5075667;28;20040;-71
2022/01/11 00:10:14;;;;;;;35.35;21.52;;;;;;;;;;5073867;28;20115;-71
2022/01/11 00:12:40;;;;;;;34.03;21.20;;;;;;;;;;5081181;28;20052;-71
2022/01/11 00:15:06;;;;;;;34.35;20.65;;;;;;;;;;5073922;28;20062;-71
2022/01/11 00:17:32;;;;;;;36.53;19.73;;;;;;;;;;5085008;28;20040;-71
2022/01/11 00:19:58;;;;;;;33.42;20.25;;;;;;;;;;5076509;28;20040;-71
2022/01/11 00:22:30;;;;;;;35.50;21.20;;;;;;;;;;5066616;28;20051;-71
2022/01/11 00:24:57;;;;;;;43.10;21.80;;;;;;;;;;5093975;28;20521;-71
2022/01/11 00:27:23;;;;;;;34.47;19.70;;;;;;;;;;5067632;28;20174;-71
2022/01/11 00:29:52;;;;;;;32.20;20.45;;;;;;;;;;5072814;28;20041;-71
2022/01/11 00:32:27;;;;;;;34.63;20.00;;;;;;;;;;5080246;28;20048;-71
2022/01/11 00:34:55;;;;;;;34.72;21.05;;;;;;;;;;5093635;28;20404;-71
2022/01/11 00:37:21;;;;;;;38.75;20.50;;;;;;;;;;5089328;28;20083;-71
2022/01/11 00:39:50;;;;;;;32.38;19.40;;;;;;;;;;5056946;28;20381;-71
2022/01/11 00:42:17;;;;;;;37.70;19.70;;;1.80;99.90;;;;;;5077962;28;20084;-71
2022/01/11 00:44:43;;;;;;;34.70;19.83;;;;;;;;;;5093311;28;20032;-71
2022/01/11 00:47:10;;;;;;;33.90;19.48;;;1.70;99.90;;;;;;5089122;28;20076;-71
2022/01/11 00:49:38;;;;;;;34.63;20.15;;;;;;;;;;5073171;28;20059;-71
2022/01/11 00:52:05;;;;;;;32.53;19.33;;;;;;;;;;5072490;28;20441;-71
2022/01/11 00:54:31;;;;;;;30.13;19.17;;;;;;;;;;5093605;28;20047;-71
2022/01/11 00:56:57;;;;;;;32.22;18.17;;;;;;;;;;5091737;28;20051;-71
2022/01/11 00:59:23;;;;;;;35.80;18.90;;;;;;;;;;5093390;28;20036;-72
2022/01/11 01:01:49;;;;;;;34.15;18.63;;;;;;;;;;5092925;28;20051;-71
2022/01/11 01:04:18;;;;;;;38.40;18.88;;;;;;;;;;5092455;28;20063;-71
2022/01/11 01:06:45;;;;;;;34.28;18.42;;;;;;;;;;5056727;28;20080;-71
2022/01/11 01:09:12;;;;;;;32.47;19.10;;;;;;;;;;5071950;28;20392;-71
2022/01/11 01:11:38;;;;;;;31.52;17.80;;;;;;;;;;5073535;28;20051;-71
2022/01/11 01:14:04;;;;;;;36.40;18.02;;;;;;;;;;5088824;28;20040;-71
2022/01/11 01:16:30;;;;;;;34.25;19.55;;;;;;;;;;5076077;28;20050;-71
2022/01/11 01:18:56;;;;;;;29.05;17.75;;;;;;;;;;5077717;28;20040;-72
2022/01/11 01:21:22;;;;;;;32.78;18.05;;;;;;;;;;5072445;28;20042;-71
2022/01/11 01:23:48;;;;;;;34.03;18.67;;;;;;;;;;5072693;28;20080;-71
2022/01/11 01:26:17;;;;;;;34.65;19.08;;;;;;;;;;5072344;28;20123;-71
2022/01/11 01:28:43;;;;;;;31.55;17.88;;;;;;;;;;5077682;28;20045;-71
2022/01/11 01:31:09;;;;;;;34.45;17.17;;;;;;;;;;5072488;28;20076;-71
2022/01/11 01:33:36;;;;;;;31.50;17.40;;;;;;;;;;5081923;28;20040;-71
2022/01/11 01:36:04;;;;;;;32.83;17.80;;;1.80;99.90;;;;;;5072412;28;20036;-72
2022/01/11 01:38:32;;;;;;;34.72;17.27;;;1.70;99.90;;;;;;5080942;28;20468;-72
2022/01/11 01:41:08;;;;;;;30.60;17.85;;;1.70;99.90;;;;;;5091817;28;20036;-72
2022/01/11 01:43:34;;;;;;;31.25;17.95;;;2.20;99.90;;;;;;5083381;28;20098;-71
2022/01/11 01:46:01;;;;;;;29.05;17.33;;;;;;;;;;5055482;28;20044;-71
2022/01/11 01:48:27;;;;;;;28.35;17.33;;;;;;;;;;5080858;28;20040;-71
2022/01/11 01:50:53;;;;;;;34.90;17.23;;;;;;;;;;5071987;28;20045;-71
2022/01/11 01:53:19;;;;;;;32.67;16.70;;;;;;;;;;5077399;28;20092;-72
2022/01/11 01:55:47;;;;;;;33.15;18.35;;;1.80;99.90;;;;;;5092477;28;20051;-72
2022/01/11 01:58:14;;;;;;;34.97;17.63;;;1.60;99.90;;;;;;5081939;28;20047;-71
2022/01/11 02:00:45;;;;;;;34.85;18.08;;;1.80;99.90;;;;;;5092480;28;20050;-72
2022/01/11 02:03:14;;;;;;;33.40;17.65;;;1.90;99.90;;;;;;5088198;28;20560;-71
2022/01/11 02:05:41;;;;;;;33.15;18.15;;;1.70;99.90;;;;;;5055196;28;20044;-71
2022/01/11 02:08:08;;;;;;;36.53;17.90;;;1.80;99.90;;;;;;5057889;28;20044;-71
2022/01/11 02:10:36;;;;;;;35.80;17.08;;;1.70;99.90;;;;;;5092406;28;20043;-72
2022/01/11 02:13:03;;;;;;;32.80;17.98;;;;;;;;;;5091006;28;20130;-72
2022/01/11 02:15:29;;;;;;;33.88;17.60;;;;;;;;;;5072137;28;20109;-72
2022/01/11 02:17:55;;;;;;;35.20;17.52;;;;;;;;;;5083403;28;20044;-72
2022/01/11 02:20:21;;;;;;;36.70;17.75;;;;;;;;;;5071786;28;20048;-71
2022/01/11 02:22:47;;;;;;;33.58;17.70;;;;;;;;;;5071668;28;20040;-72
2022/01/11 02:25:14;;;;;;;34.30;18.52;;;;;;;;;;5086750;28;20045;-72
2022/01/11 02:27:40;;;;;;;34.03;18.17;;;1.80;99.90;;;;;;5063231;28;20032;-72
2022/01/11 02:30:07;;;;;;;36.50;17.42;;;1.80;99.90;;;;;;5075861;28;20040;-72
2022/01/11 02:32:33;;;;;;;32.42;16.77;;;;;;;;;;5054956;28;20079;-72
2022/01/11 02:34:59;;;;;;;34.25;17.25;;;;;;;;;;5085859;28;20548;-72
2022/01/11 02:37:25;;;;;;;32.40;17.02;;;;;;;;;;5071795;28;20029;-71
2022/01/11 02:39:51;;;;;;;32.15;17.13;;;;;;;;;;5084119;28;20044;-71
2022/01/11 02:42:17;;;;;;;38.10;17.45;;;;;;;;;;5091680;28;20082;-72
2022/01/11 02:44:43;;;;;;;36.75;16.55;;;;;;;;;;5087709;28;20043;-72
2022/01/11 02:47:09;;;;;;;27.48;16.60;;;;;;;;;;5074293;28;20036;-72
2022/01/11 02:49:35;;;;;;;30.15;16.58;;;;;;;;;;5087794;28;20151;-72
2022/01/11 02:52:01;;;;;;;36.28;17.40;;;;;;;;;;5072155;28;20045;-72
2022/01/11 02:54:27;;;;;;;29.65;16.27;;;;;;;;;;5081738;28;20040;-71
2022/01/11 02:56:53;;;;;;;31.20;16.83;;;;;;;;;;5086516;28;20072;-71
2022/01/11 02:59:19;;;;;;;33.88;17.23;;;;;;;;;;5081471;28;20036;-72
2022/01/11 03:01:45;;;;;;;34.30;17.80;;;;;;;;;;5095295;28;20044;-72
2022/01/11 03:04:12;;;;;;;36.58;17.30;;;;;;;;;;5091239;28;20562;-72
2022/01/11 03:06:38;;;;;;;35.92;17.48;;;;;;;;;;5074845;28;20032;-71
2022/01/11 03:09:04;;;;;;;35.50;17.55;;;;;;;;;;5091830;28;20039;-71
2022/01/11 03:11:32;;;;;;;32.30;17.10;;;;;;;;;;5075005;28;20032;-72
2022/01/11 03:14:03;;;;;;;32.25;16.90;;;1.60;99.90;;;;;;5075093;28;20044;-72
2022/01/11 03:16:29;;;;;;;31.63;17.60;;;;;;;;;;5095308;28;20097;-72
2022/01/11 03:18:55;;;;;;;37.25;17.73;;;;;;;;;;5091104;28;20040;-72
2022/01/11 03:21:21;;;;;;;37.58;16.55;;;;;;;;;;5093919;28;20513;-72
2022/01/11 03:23:48;;;;;;;36.47;18.52;;;;;;;;;;5074131;28;20119;-72
2022/01/11 03:26:14;;;;;;;33.17;17.45;;;;;;;;;;5092209;28;20051;-72
2022/01/11 03:28:40;;;;;;;36.03;17.88;;;;;;;;;;5090818;28;20095;-71
2022/01/11 03:31:06;;;;;;;34.67;18.40;;;;;;;;;;5090365;28;20043;-72
2022/01/11 03:33:32;;;;;;;34.00;18.08;;;;;;;;;;5078005;28;20040;-72
2022/01/11 03:35:58;;;;;;;32.08;17.33;;;;;;;;;;5057614;28;20068;-72
2022/01/11 03:38:25;;;;;;;39.72;16.95;;;;;;;;;;5068505;28;20066;-72
2022/01/11 03:40:51;;;;;;;38.13;17.38;;;;;;;;;;5074409;28;20127;-72
2022/01/11 03:43:21;;;;;;;34.65;18.13;;;;;;;;;;5057584;28;20036;-72
2022/01/11 03:45:47;;;;;;;31.63;17.10;;;1.40;99.90;;;;;;5065392;28;20062;-72
2022/01/11 03:48:15;;;;;;;38.08;18.20;;;1.60;99.90;;;;;;5074065;28;20051;-72
2022/01/11 03:50:42;;;;;;;38.08;18.13;;;;;;;;;;5074256;28;20514;-71
2022/01/11 03:53:15;;;;;;;34.80;17.52;;;;;;;;;;5057497;28;20082;-72
2022/01/11 03:58:15;;;;;;;36.80;18.45;;;;;;;;;;5080182;28;20044;-72
2022/01/11 04:00:41;;;;;;;40.63;18.05;;;;;;;;;;5080780;28;20530;-72
2022/01/11 04:03:07;;;;;;;39.08;17.98;;;;;;;;;;5093229;28;20512;-72
2022/01/11 04:05:34;;;;;;;36.58;17.42;;;;;;;;;;5072606;28;20037;-71
2022/01/11 04:08:00;;;;;;;34.28;17.33;;;;;;;;;;5067767;28;20040;-72
2022/01/11 04:10:26;;;;;;;38.75;18.00;;;;;;;;;;5090216;28;20515;-72
2022/01/11 04:12:53;;;;;;;35.58;18.33;;;;;;;;;;5074029;28;20085;-71
2022/01/11 04:15:19;;;;;;;37.58;17.13;;;;;;;;;;5076630;28;20135;-72
2022/01/11 04:17:45;;;;;;;34.38;18.63;;;;;;;;;;5089673;28;20089;-72
2022/01/11 04:20:13;;;;;;;34.75;17.98;;;;;;;;;;5074544;28;20101;-72
2022/01/11 04:22:39;;;;;;;35.25;18.27;;;;;;;;;;5093568;28;20129;-72
2022/01/11 04:25:06;;;;;;;33.13;17.52;;;;;;;;;;5077012;28;20388;-71
2022/01/11 04:27:32;;;;;;;46.03;19.38;;;;;;;;;;5092717;28;20086;-72
2022/01/11 04:29:58;;;;;;;36.40;18.08;;;;;;;;;;5093628;28;20435;-72
2022/01/11 04:32:24;;;;;;;42.83;18.83;;;;;;;;;;5089812;28;20385;-71
2022/01/11 04:34:50;;;;;;;39.40;18.30;;;;;;;;;;5073214;28;20113;-71
2022/01/11 04:37:16;;;;;;;43.03;19.83;;;;;;;;;;5089310;28;20040;-71
2022/01/11 04:39:42;;;;;;;38.45;17.95;;;;;;;;;;5089375;28;20048;-71
2022/01/11 04:42:08;;;;;;;41.25;18.80;;;;;;;;;;5087615;28;20082;-72
2022/01/11 04:44:34;;;;;;;37.38;18.42;;;;;;;;;;5093695;28;20486;-71
2022/01/11 04:47:00;;;;;;;40.53;19.63;;;;;;;;;;5089563;28;20036;-72
2022/01/11 04:49:26;;;;;;;42.97;19.10;;;;;;;;;;5068725;28;20033;-71
2022/01/11 04:51:53;;;;;;;41.65;19.08;;;;;;;;;;5080784;28;20036;-71
2022/01/11 04:54:19;;;;;;;39.85;19.92;;;;;;;;;;5072969;28;20404;-72
2022/01/11 04:56:46;;;;;;;44.90;18.75;;;;;;;;;;5083196;28;20373;-71
2022/01/11 04:59:12;;;;;;;50.33;20.48;;;;;;;;;;5089484;28;20063;-71
2022/01/11 05:01:40;;;;;;;43.88;19.50;;;;;;;;;;5081074;28;20048;-71
2022/01/11 05:04:06;;;;;;;40.17;19.40;;;;;;;;;;5092975;28;20131;-71
2022/01/11 05:06:32;;;;;;;42.53;20.25;;;;;;;;;;5089058;28;20157;-71
2022/01/11 05:08:58;;;;;;;43.38;19.45;;;;;;;;;;5083237;28;20051;-71
2022/01/11 05:11:25;;;;;;;41.08;18.95;;;;;;;;;;5071882;28;20471;-71
2022/01/11 05:13:51;;;;;;;40.40;19.67;;;;;;;;;;5072704;28;20079;-71
2022/01/11 05:16:17;;;;;;;44.97;19.70;;;;;;;;;;5075864;28;20032;-71
2022/01/11 05:18:43;;;;;;;51.80;19.95;;;;;;;;;;5091709;28;20476;-72
2022/01/11 05:21:09;;;;;;;47.33;19.50;;;;;;;;;;5090072;28;20039;-71
2022/01/11 05:23:35;;;;;;;43.40;18.73;;;;;;;;;;5072460;28;20044;-72
2022/01/11 05:26:02;;;;;;;44.63;19.58;;;1.50;99.90;;;;;;5073180;28;20048;-71
2022/01/11 05:28:28;;;;;;;38.20;20.15;;;2.00;99.90;;;;;;5086355;28;20036;-71
2022/01/11 05:30:54;;;;;;;42.78;18.73;;;;;;;;;;5072679;28;20048;-71
2022/01/11 05:33:20;;;;;;;41.90;18.65;;;;;;;;;;5091119;28;20047;-71
2022/01/11 05:35:47;;;;;;;40.70;18.70;;;;;;;;;;5075821;28;20040;-71
2022/01/11 05:38:13;;;;;;;42.47;18.77;;;;;;;;;;5074580;28;20033;-71
2022/01/11 05:40:39;;;;;;;44.20;18.45;;;;;;;;;;5072524;28;20048;-71
2022/01/11 05:43:06;;;;;;;42.45;18.50;;;;;;;;;;5087620;28;20040;-71
2022/01/11 05:45:32;;;;;;;48.50;19.05;;;;;;;;;;5092327;28;20072;-71
2022/01/11 05:48:00;;;;;;;45.10;19.10;;;;;;;;;;5074048;28;20043;-71
2022/01/11 05:50:26;;;;;;;39.97;18.70;;;;;;;;;;5072074;28;20119;-71
2022/01/11 05:52:53;;;;;;;48.05;19.55;;;;;;;;;;5084317;28;20092;-71
2022/01/11 05:55:19;;;;;;;48.53;19.08;;;;;;;;;;5075696;28;20040;-71
2022/01/11 05:57:45;;;;;;;46.67;19.45;;;;;;;;;;5063975;28;20481;-71
2022/01/11 06:00:18;;;;;;;45.25;18.17;;;1.50;99.90;;;;;;5072282;28;20047;-71
2022/01/11 06:02:47;;;;;;;36.35;17.45;;;2.10;99.90;;;;;;5072421;28;20125;-71
2022/01/11 06:05:16;;;;;;;45.85;18.40;;;1.60;99.90;;;;;;5038867;28;20503;-71
2022/01/11 06:07:42;;;;;;;46.13;18.63;;;;;;;;;;5079897;28;20488;-75
2022/01/11 06:10:08;;;;;;;41.92;17.63;;;1.70;99.90;;;;;;5071533;28;20036;-71
2022/01/11 06:12:34;;;;;;;39.47;17.88;;;;;;;;;;5076782;28;20036;-71
2022/01/11 06:15:00;;;;;;;45.17;19.50;;;;;;;;;;5080650;28;20033;-71
2022/01/11 06:17:26;;;;;;;54.58;19.92;;;;;;;;;;5071765;28;20045;-71
2022/01/11 06:19:53;;;;;;;44.85;18.92;;;;;;;;;;5055345;28;20430;-71
2022/01/11 06:22:20;;;;;;;51.53;19.90;;;;;;;;;;5081878;28;20040;-71
2022/01/11 06:24:47;;;;;;;46.75;18.92;;;;;;;;;;5092414;28;20484;-71
2022/01/11 06:27:13;;;;;;;51.65;19.25;;;;;;;;;;5083087;28;20442;-71
2022/01/11 06:29:39;;;;;;;50.58;19.55;;;;;;;;;;5075167;28;20527;-71
2022/01/11 06:32:06;;;;;;;48.47;19.23;;;;;;;;;;5058048;28;20393;-71
2022/01/11 06:34:32;;;;;;;51.00;19.00;;;;;;;;;;5075702;28;20437;-71
2022/01/11 06:36:59;;;;;;;44.67;18.17;;;;;;;;;;5075513;28;20032;-71
2022/01/11 06:39:26;;;;;;;42.30;19.02;;;;;;;;;;5075927;28;20109;-71
2022/01/11 06:41:52;;;;;;;43.65;18.58;;;;;;;;;;5061686;28;20048;-71
2022/01/11 06:44:18;;;;;;;44.45;18.95;;;;;;;;;;5095978;28;20380;-71
2022/01/11 06:46:44;;;;;;;51.33;19.75;;;;;;;;;;5092663;28;20039;-71
2022/01/11 06:49:10;;;;;;;45.38;18.83;;;;;;;;;;5095107;28;20032;-72
2022/01/11 06:51:37;;;;;;;49.42;19.80;;;;;;;;;;5094150;28;20040;-71
2022/01/11 06:54:03;;;;;;;43.22;18.58;;;;;;;;;;5078679;28;20044;-72
2022/01/11 06:56:29;;;;;;;46.00;19.27;;;;;;;;;;5078760;28;20028;-72
2022/01/11 06:58:55;;;;;;;40.28;18.80;;;;;;;;;;5093472;28;20123;-71
2022/01/11 07:01:21;;;;;;;52.47;20.25;;;;;;;;;;5095568;28;20059;-72
2022/01/11 07:03:47;;;;;;;54.35;21.75;;;;;;;;;;5057870;28;20048;-72
2022/01/11 07:06:14;;;;;;;48.88;19.95;;;;;;;;;;5093967;28;20463;-72
2022/01/11 07:08:40;;;;;;;54.50;20.60;;;;;;;;;;5052750;28;20128;-71
2022/01/11 07:11:06;;;;;;;46.67;18.67;;;;;;;;;;5058203;28;20098;-72
2022/01/11 07:13:35;;;;;;;50.45;20.83;;;;;;;;;;5074532;28;20077;-72
2022/01/11 07:16:01;;;;;;;43.22;19.10;;;;;;;;;;5076221;28;20048;-72
2022/01/11 07:18:27;;;;;;;46.78;20.40;;;;;;;;;;5082143;28;20036;-72
2022/01/11 07:20:53;;;;;;;48.63;19.77;;;;;;;;;;5075022;28;20044;-71
2022/01/11 07:23:19;;;;;;;45.88;19.40;;;;;;;;;;5082782;28;20047;-72
2022/01/11 07:25:45;;;;;;;49.80;19.48;;;;;;;;;;5067540;28;20032;-72
2022/01/11 07:28:14;;;;;;;52.40;22.23;;;;;;;;;;5080682;28;20173;-72
2022/01/11 07:30:40;;;;;;;50.45;21.35;;;;;;;;;;5077858;28;20036;-72
2022/01/11 07:33:06;;;;;;;42.55;19.73;;;;;;;;;;5069087;28;20388;-72
2022/01/11 07:35:32;;;;;;;56.60;20.13;;;2.00;99.90;;;;;;5082659;28;20488;-72
2022/01/11 07:37:59;;;;;;;48.40;19.85;;;;;;;;;;5092383;28;20484;-72
2022/01/11 07:40:24;;;;;;;47.78;19.20;;;0.80;99.90;;;;;;5057980;28;20033;-72
2022/01/11 07:42:51;;;;;;;43.70;19.35;;;;;;;;;;5077169;28;20051;-72
2022/01/11 07:45:17;;;;;;;46.63;19.92;;;;;;;;;;5080176;28;20033;-72
2022/01/11 07:47:43;;;;;;;51.50;20.50;;;;;;;;;;5094298;28;20044;-72
2022/01/11 07:50:10;;;;;;;48.38;20.05;;;;;;;;;;5090127;28;20493;-72
2022/01/11 07:52:36;;;;;;;49.88;19.95;;;;;;;;;;5088624;28;20131;-72
2022/01/11 07:55:02;;;;;;;46.90;19.73;;;;;;;;;;5083859;28;20044;-72
2022/01/11 07:57:28;;;;;;;44.28;20.80;;;;;;;;;;5072463;28;20047;-72
2022/01/11 07:59:55;;;;;;;49.42;21.40;;;;;;;;;;5074103;28;20481;-72
2022/01/11 08:02:23;;;;;;;46.78;20.35;;;1.30;99.90;;;;;;5073796;28;20079;-73
2022/01/11 08:04:49;;;;;;;52.38;20.67;;;;;;;;;;5059580;28;20084;-72
2022/01/11 08:07:15;;;;;;;46.50;19.63;;;;;;;;;;5073899;28;20071;-72
2022/01/11 08:09:41;;;;;;;46.80;19.45;;;;;;;;;;5088002;28;20100;-72
2022/01/11 08:12:07;;;;;;;51.05;20.38;;;1.50;99.90;;;;;;5094145;28;20388;-72
2022/01/11 08:14:34;;;;;;;47.90;20.20;;;;;;;;;;5083798;28;20136;-72
2022/01/11 08:17:00;;;;;;;45.60;20.38;;;;;;;;;;5077409;28;20047;-72
2022/01/11 08:19:27;;;;;;;54.42;20.55;;;;;;;;;;5073339;28;20075;-72
2022/01/11 08:21:54;;;;;;;49.72;20.83;;;1.40;99.90;;;;;;5073357;28;20045;-72
2022/01/11 08:24:23;;;;;;;45.42;20.45;;;;;;;;;;5081040;28;20123;-73
2022/01/11 08:26:49;;;;;;;43.42;19.50;;;;;;;;;;5089130;28;20038;-73
2022/01/11 08:29:18;;;;;;;48.97;20.85;;;;;;;;;;5073799;28;20036;-80
2022/01/11 08:31:44;;;;;;;44.97;19.05;;;;;;;;;;5073531;28;20060;-80
2022/01/11 08:34:13;;;;;;;46.58;19.63;;;;;;;;;;5073156;28;20036;-72
2022/01/11 08:36:40;;;;;;;48.75;20.45;;;;;;;;;;5073499;28;20044;-75
2022/01/11 08:39:06;;;;;;;46.78;20.75;;;1.50;99.90;;;;;;5072205;28;20045;-72
2022/01/11 08:41:32;;;;;;;45.38;20.33;;;;;;;;;;5056721;28;20044;-72
2022/01/11 08:43:58;;;;;;;43.95;20.17;;;;;;;;;;5074084;28;20032;-72
2022/01/11 08:46:24;;;;;;;45.50;20.63;;;;;;;;;;5075812;28;20089;-72
2022/01/11 08:48:50;;;;;;;44.85;21.05;;;;;;;;;;5074362;28;20055;-72
2022/01/11 08:51:16;;;;;;;48.70;21.15;;;;;;;;;;5075520;28;20043;-72
2022/01/11 08:53:42;;;;;;;50.22;20.98;;;;;;;;;;5092460;28;20047;-73
2022/01/11 08:56:08;;;;;;;53.60;22.45;;;;;;;;;;5068386;28;20027;-73
2022/01/11 08:58:35;;;;;;;51.42;22.27;;;;;;;;;;5076299;28;20390;-73
2022/01/11 09:01:01;;;;;;;55.25;22.45;;;;;;;;;;5076874;28;20039;-72
2022/01/11 09:03:27;;;;;;;48.10;21.08;;;;;;;;;;5072397;28;20477;-73
2022/01/11 09:05:53;;;;;;;54.47;22.98;;;;;;;;;;5065817;28;20033;-73
2022/01/11 09:08:20;;;;;;;48.47;22.08;;;;;;;;;;5072499;28;20040;-73
2022/01/11 09:10:47;;;;;;;53.45;23.35;;;;;;;;;;5087073;28;20047;-73
2022/01/11 09:13:14;;;;;;;55.17;21.27;;;;;;;;;;5092819;28;20043;-73
2022/01/11 09:15:40;;;;;;;51.13;21.33;;;;;;;;;;5084771;28;20076;-73
2022/01/11 09:18:06;;;;;;;53.67;22.58;;;;;;;;;;5071365;28;20040;-73
2022/01/11 09:20:32;;;;;;;53.10;22.52;;;;;;;;;;5082562;28;20043;-73
2022/01/11 09:22:59;;;;;;;56.95;23.58;;;;;;;;;;5075395;28;20074;-73
2022/01/11 09:25:25;;;;;;;61.10;22.40;;;;;;;;;;5082512;28;20484;-73
2022/01/11 09:27:51;;;;;;;68.50;23.30;;;;;;;;;;5072344;28;20043;-73
2022/01/11 09:30:17;;;;;;;49.00;21.63;;;1.40;99.90;;;;;;5079717;28;20209;-73
2022/01/11 09:32:43;;;;;;;52.55;22.98;;;;;;;;;;5074152;28;20052;-73
2022/01/11 09:35:11;;;;;;;53.88;22.40;;;1.50;99.90;;;;;;5079710;28;20048;-73
2022/01/11 09:37:38;;;;;;;58.65;23.42;;;;;;;;;;5055581;28;20051;-73
2022/01/11 09:40:06;;;;;;;49.17;21.42;;;;;;;;;;5077074;28;20557;-72
2022/01/11 09:42:33;;;;;;;57.38;23.73;;;;;;;;;;5092456;28;20079;-73
2022/01/11 09:45:00;;;;;;;59.22;22.70;;;;;;;;;;5074893;28;20537;-73
2022/01/11 09:47:26;;;;;;;61.10;24.13;;;;;;;;;;5092545;28;20032;-73
2022/01/11 09:49:52;;;;;;;59.35;23.85;;;;;;;;;;5085077;28;20117;-73
2022/01/11 09:52:18;;;;;;;58.95;25.27;;;;;;;;;;5071480;28;20118;-73
2022/01/11 09:54:47;;;;;;;62.75;24.98;;;1.60;99.90;;;;;;5072822;28;20075;-72
2022/01/11 09:57:13;;;;;;;57.65;23.65;;;;;;;;;;5092224;28;20036;-72
2022/01/11 09:59:39;;;;;;;54.28;23.15;;;;;;;;;;5088275;28;20040;-73
2022/01/11 10:02:06;;;;;;;54.88;24.13;;;;;;;;;;5080289;28;20096;-73
2022/01/11 10:04:34;;;;;;;57.70;24.00;;;1.60;99.90;;;;;;5055079;28;20082;-72
2022/01/11 10:07:02;;;;;;;56.22;23.88;;;;;;;;;;5084780;28;20485;-72
2022/01/11 10:09:31;;;;;;;55.58;23.67;;;1.50;99.90;;;;;;5072652;28;20033;-72
2022/01/11 10:11:59;;;;;;;57.13;23.45;;;1.50;99.90;;;;;;5072155;28;20068;-72
2022/01/11 10:14:25;;;;;;;65.03;25.63;;;;;;;;;;5083004;28;20595;-73
2022/01/11 10:17:09;;;;;;;60.70;24.23;;;1.70;99.90;;;;;;5087991;28;20048;-73
2022/01/11 10:19:40;;;;;;;61.70;24.20;;;1.70;99.90;;;;;;5071900;28;20040;-73
2022/01/11 10:22:09;;;;;;;54.63;22.10;;;1.70;99.90;;;;;;5088323;28;20044;-73
2022/01/11 10:24:42;;;;;;;56.45;23.83;;;1.50;99.90;;;;;;5079005;28;20046;-73
2022/01/11 10:27:26;;;;;;;60.60;24.27;;;1.60;99.90;;;;;;5059216;28;20037;-73
2022/01/11 10:30:25;;;;;;;62.08;24.40;;;1.60;99.90;;;;;;5071697;28;20040;-73
2022/01/11 10:32:53;;;;;;;64.72;25.02;;;1.50;99.90;;;;;;5029461;28;20388;-73
2022/01/11 10:35:24;;;;;;;60.60;23.95;;;1.70;99.90;;;;;;5064306;28;20037;-73
2022/01/11 10:37:54;;;;;;;57.08;23.23;;;;;;;;;;5088724;28;20051;-73
2022/01/11 10:40:26;;;;;;;58.63;24.58;;;1.60;99.90;;;;;;5056898;28;20127;-73
2022/01/11 10:43:05;;;;;;;58.20;23.83;;;1.70;99.90;;;;;;5082573;28;20404;-73
2022/01/11 10:45:43;;;;;;;54.72;23.60;;;1.80;99.90;;;;;;5081195;28;20051;-73
2022/01/11 10:48:20;;;;;;;55.67;24.17;;;2.00;99.90;;;;;;5072286;28;20040;-73
2022/01/11 10:50:52;;;;;;;54.90;23.67;;;1.80;99.90;;;;;;5079685;28;20039;-73
2022/01/11 10:53:24;;;;;;;55.67;24.30;;;1.90;99.90;;;;;;5072891;28;20043;-73
2022/01/11 10:55:59;;;;;;;52.33;23.42;;;1.80;99.90;;;;;;5078484;28;20051;-73
2022/01/11 10:58:28;;;;;;;54.88;24.15;;;1.90;99.90;;;;;;5078596;28;20119;-73
2022/01/11 11:00:54;;;;;;;58.28;23.55;;;;;;;;;;5081805;28;20043;-73
2022/01/11 11:03:32;;;;;;;59.17;24.10;;;1.80;99.90;;;;;;5073949;28;20097;-73
2022/01/11 11:06:05;;;;;;;57.70;23.88;;;2.10;99.90;;;;;;5060290;28;20531;-73
2022/01/11 11:08:38;;;;;;;53.15;23.70;;;;;;;;;;5061188;28;20036;-73
2022/01/11 11:11:07;;;;;;;49.83;21.13;;;2.20;99.90;;;;;;5079835;28;20048;-73
2022/01/11 11:14:00;;;;;;;55.55;23.42;;;;;;;;;;5072491;28;20171;-73
2022/01/11 11:16:29;;;;;;;;;;;2.20;99.90;;;;;;5086849;28;20049;-73
2022/01/11 11:18:57;;;;;;;51.65;21.63;;;;;;;;;;5071572;28;19917;-73
2022/01/11 11:21:26;;;;;;;54.45;20.60;;;;;;;;;;5083205;28;20035;-73
2022/01/11 11:23:56;;;;;;;55.70;21.77;;;;;;;;;;5081689;28;20040;-73
2022/01/11 11:26:25;;;;;;;60.63;22.80;;;2.00;99.90;;;;;;5081774;28;20043;-73
2022/01/11 11:28:51;;;;;;;55.85;21.98;;;;;;;;;;5087673;28;20047;-73
2022/01/11 11:31:17;;;;;;;53.78;22.02;;;;;;;;;;5086524;28;20041;-73
2022/01/11 11:33:43;;;;;;;47.45;20.38;;;;;;;;;;5089838;28;20040;-73
2022/01/11 11:36:15;;;;;;;48.75;20.95;;;2.60;99.90;;;;;;5078880;28;20047;-73
2022/01/11 11:38:48;;;;;;;47.17;22.13;;;;;;;;;;5082231;28;20042;-73
2022/01/11 11:41:15;;;;;;;53.88;21.95;;;2.40;99.90;;;;;;5098074;28;20040;-73
2022/01/11 11:43:41;;;;;;;57.47;21.50;;;;;;;;;;5074366;28;20111;-73
2022/01/11 11:46:07;;;;;;;53.50;22.52;;;;;;;;;;5079526;28;20032;-73
2022/01/11 11:48:33;;;;;;;49.75;22.52;;;;;;;;;;5089268;28;20028;-73
2022/01/11 11:51:03;;;;;;;57.42;21.73;;;2.50;99.90;;;;;;5061727;28;20037;-73
2022/01/11 11:53:38;;;;;;;51.58;20.95;;;2.40;99.90;;;;;;5081829;28;20139;-73
2022/01/11 11:56:25;;;;;;;49.15;21.90;;;2.50;99.90;;;;;;5078676;28;20040;-73
2022/01/11 11:58:56;;;;;;;53.03;20.88;;;2.60;99.90;;;;;;5078726;28;20576;-73
2022/01/11 12:01:42;;;;;;;43.53;19.13;;;2.60;99.90;;;;;;5085813;28;20496;-73
2022/01/11 12:04:31;;;;;;;47.58;21.23;;;2.60;99.90;;;;;;5077300;28;20064;-73
2022/01/11 12:07:18;;;;;;;44.88;20.10;;;2.50;99.90;;;;;;5071674;28;20047;-73
2022/01/11 12:09:51;;;;;;;46.22;20.33;;;;;;;;;;5084456;28;20101;-73
2022/01/11 12:12:45;;;;;;;45.35;19.92;;;2.70;99.90;;;;;;5080219;28;20032;-73
2022/01/11 12:15:23;;;;;;;45.08;19.63;;;;;;;;;;5073567;28;20043;-73
2022/01/11 12:17:55;;;;;;;49.97;21.23;;;;;;;;;;5058724;28;20033;-73
2022/01/11 12:20:41;;;;;;;48.90;20.05;;;;;;;;;;5073760;28;20090;-73
2022/01/11 12:23:13;;;;;;;43.42;20.17;;;2.90;99.90;;;;;;5087946;28;20105;-73
2022/01/11 12:25:42;;;;;;;45.75;19.42;;;3.00;99.90;;;;;;5085274;28;20102;-73
2022/01/11 12:28:16;;;;;;;49.80;21.70;;;2.80;99.90;;;;;;5078639;28;20075;-73
2022/01/11 12:30:42;;;;;;;47.90;20.02;;;;;;;;;;5088940;28;20512;-73
2022/01/11 12:33:21;;;;;;;46.08;20.38;;;2.80;99.90;;;;;;5086915;28;20064;-73
2022/01/11 12:35:57;;;;;;;42.20;18.85;;;2.90;99.90;;;;;;5071703;28;20404;-73
2022/01/11 12:38:24;;;;;;;40.75;19.13;;;;;;;;;;5083449;28;20036;-73
2022/01/11 12:40:51;;;;;;;40.50;19.33;;;3.00;99.90;;;;;;5081570;28;20036;-73
2022/01/11 12:43:38;;;;;;;46.17;19.63;;;3.10;99.90;;;;;;5081969;28;20033;-73
2022/01/11 12:46:12;;;;;;;43.78;19.25;;;;;;;;;;5061474;28;20389;-75
2022/01/11 12:48:45;;;;;;;41.70;18.98;;;3.00;99.90;;;;;;5073043;28;20123;-73
2022/01/11 12:51:31;;;;;;;42.72;20.38;;;3.10;99.90;;;;;;5079721;28;20548;-80
2022/01/11 12:54:16;;;;;;;46.70;18.42;;;3.20;99.90;;;;;;5078460;28;20044;-77
2022/01/11 12:56:43;;;;;;;41.03;18.15;;;3.20;99.90;;;;;;5078714;28;20117;-80
2022/01/11 12:59:09;;;;;;;42.25;18.00;;;;;;;;;;5074375;28;20071;-74
2022/01/11 13:01:36;;;;;;;38.97;17.23;;;;;;;;;;5092432;28;20441;-73
2022/01/11 13:04:03;;;;;;;41.08;16.23;;;;;;;;;;5091384;28;20469;-73
2022/01/11 13:06:34;;;;;;;37.85;17.75;;;;;;;;;;5092162;28;20044;-73
2022/01/11 13:09:04;;;;;;;47.33;18.17;;;3.30;99.90;;;;;;5075915;28;20028;-74
2022/01/11 13:11:30;;;;;;;38.92;16.75;;;;;;;;;;5076074;28;20032;-74
2022/01/11 13:14:39;;;;;;;36.95;16.48;;;3.20;99.90;;;;;;5092814;28;20044;-74
2022/01/11 13:17:05;;;;;;;40.95;16.48;;;;;;;;;;5082402;28;20043;-73
2022/01/11 13:19:41;;;;;;;38.05;17.50;;;3.30;99.90;;;;;;5085370;28;20473;-73
2022/01/11 13:22:10;;;;;;;39.63;16.92;;;3.30;99.90;;;;;;5080106;28;20044;-73
2022/01/11 13:24:37;;;;;;;46.25;17.13;;;;;;;;;;5093074;28;20389;-73
2022/01/11 13:27:13;;;;;;;37.70;16.77;;;3.30;99.90;;;;;;5087051;28;20059;-73
2022/01/11 13:29:39;;;;;;;38.25;16.00;;;;;;;;;;5073155;28;20033;-73
2022/01/11 13:32:06;;;;;;;38.03;16.00;;;;;;;;;;5083961;28;20059;-73
2022/01/11 13:34:32;;;;;;;34.35;15.77;;;;;;;;;;5074876;28;20053;-73
2022/01/11 13:36:59;;;;;;;38.85;17.10;;;;;;;;;;5071265;28;20131;-73
2022/01/11 13:39:38;;;;;;;33.80;16.48;;;4.10;99.90;;;;;;5081609;28;20127;-73
2022/01/11 13:42:10;;;;;;;41.13;16.83;;;3.60;99.90;;;;;;5091957;28;20122;-73
2022/01/11 13:44:43;;;;;;;38.73;15.87;;;3.60;99.90;;;;;;5092123;28;20124;-73
2022/01/11 13:47:16;;;;;;;37.85;15.95;;;3.50;99.90;;;;;;5087106;28;20401;-73
2022/01/11 13:49:44;;;;;;;38.08;16.50;;;3.60;99.90;;;;;;5072439;28;20071;-73
2022/01/11 13:52:18;;;;;;;35.80;16.23;;;3.60;99.90;;;;;;5061464;28;20044;-73
2022/01/11 13:54:56;;;;;;;38.00;16.50;;;4.40;99.90;;;;;;5091921;28;20040;-73